Time;durP1;ratioP1;P1;durP2;ratioP2;P2;SDS_P1;SDS_P2;PMS_P1;PMS_P2;Temp;Humidity;BMP_temperature;BMP_pressure;BME280_temperature;BME280_humidity;BME280_pressure;Samples;Min_cycle;Max_cycle;Signal;HPM_P1;HPM_P2
2023/08/11 00:00:09;;;;;;;;;;;;;;;;;;2195849;59;1357;-21
2023/08/11 00:02:39;;;;;;;;;;;;;;;;;;2195560;66;1928;-21
2023/08/11 00:05:10;;;;;;;;;;;;;;;;;;2195698;59;1300;-21
2023/08/11 00:07:41;;;;;;;;;;;;;;;;;;2196327;67;1366;-21
2023/08/11 00:10:12;;;;;;;;;;;;;;;;;;2195149;67;1433;-21
2023/08/11 00:12:42;;;;;;;;;;;;;;;;;;2196470;59;1469;-21
2023/08/11 00:15:13;;;;;;;;;;;;;;;;;;2195180;67;1283;-21
2023/08/11 00:17:43;;;;;;;;;;;;;;;;;;2195802;67;1244;-21
2023/08/11 00:20:13;;;;;;;;;;;;;;;;;;2195522;67;1340;-21
2023/08/11 00:22:43;;;;;;;;;;;;;;;;;;2196088;67;1924;-21
2023/08/11 00:25:14;;;;;;;;;;;;;;;;;;2195837;59;1302;-21
2023/08/11 00:27:44;;;;;;;;;;;;;;;;;;2196446;59;1372;-21
2023/08/11 00:30:14;;;;;;;;;;;;;;;;;;2195941;67;1597;-21
2023/08/11 00:32:45;;;;;;;;;;;;;;;;;;2196273;59;1574;-21
2023/08/11 00:35:15;;;;;;;;;;;;;;;;;;2196173;66;1262;-21
2023/08/11 00:37:46;;;;;;;;;;;;;;;;;;2195912;67;2087;-21
2023/08/11 00:40:16;;;;;;;;;;;;;;;;;;2196258;67;2279;-21
2023/08/11 00:42:49;;;;;;;;;;;;;;;;;;2195371;66;2464;-21
2023/08/11 00:45:19;;;;;;;;;;;;;;;;;;2195594;59;1710;-21
2023/08/11 00:47:50;;;;;;;;;;;;;;;;;;2196133;59;1841;-21
2023/08/11 00:50:20;;;;;;;;;;;;;;;;;;2196441;59;1733;-21
2023/08/11 00:52:50;;;;;;;;;;;;;;;;;;2196414;59;2376;-21
2023/08/11 00:55:21;;;;;;;;;;;;;;;;;;2195416;59;1605;-21
2023/08/11 00:57:51;;;;;;;;;;;;;;;;;;2195790;60;1959;-21
2023/08/11 01:00:22;;;;;;;;;;;;;;;;;;2197158;59;1479;-21
2023/08/11 01:02:53;;;;;;;;;;;;;;;;;;2196857;67;2869;-21
2023/08/11 01:05:26;;;;;;;;;;;;;;;;;;2196193;66;1943;-21
2023/08/11 01:08:12;;;;;;;;;;;;;;;;;;2196691;67;2005;-21
2023/08/11 01:10:49;;;;;;;;;;;;;;;;;;2196357;67;2340;-21
2023/08/11 01:13:19;;;;;;;;;;;;;;;;;;2195964;59;2450;-21
2023/08/11 01:15:57;;;;;;;;;;;;;;;;;;2196078;67;2573;-21
2023/08/11 01:18:28;;;;;;;;;;;;;;;;;;2195901;67;2754;-21
2023/08/11 01:21:01;;;;;;;;;;;;;;;;;;2196049;67;1944;-21
2023/08/11 01:23:32;;;;;;;;;;;;;;;;;;2195888;67;1729;-21
2023/08/11 01:26:02;;;;;;;;;;;;;;;;;;2195745;59;1827;-21
2023/08/11 01:28:36;;;;;;;;;;;;;;;;;;2196708;59;1930;-21
2023/08/11 01:31:08;;;;;;;;;;;;;;;;;;2195438;59;1781;-21
2023/08/11 01:33:38;;;;;;;;;;;;;;;;;;2196656;59;2146;-21
2023/08/11 01:36:08;;;;;;;;;;;;;;;;;;2195888;67;1971;-21
2023/08/11 01:38:39;;;;;;;;;;;;;;;;;;2195528;67;2564;-21
2023/08/11 01:41:09;;;;;;;;;;;;;;;;;;2194805;67;2615;-21
2023/08/11 01:43:40;;;;;;;;;;;;;;;;;;2195017;60;2650;-21
2023/08/11 01:46:10;;;;;;;;;;;;;;;;;;2195194;59;2428;-21
2023/08/11 01:48:41;;;;;;;;;;;;;;;;;;2195849;67;1869;-21
2023/08/11 01:51:11;;;;;;;;;;;;;;;;;;2196385;59;1827;-21
2023/08/11 01:53:42;;;;;;;;;;;;;;;;;;2196161;59;1493;-21
2023/08/11 01:56:13;;;;;;;;;;;;;;;;;;2195813;59;1880;-21
2023/08/11 01:58:44;;;;;;;;;;;;;;;;;;2196508;67;1760;-21
2023/08/11 02:01:15;;;;;;;;;;;;;;;;;;2195395;59;2001;-21
2023/08/11 02:03:45;;;;;;;;;;;;;;;;;;2196694;58;2006;-21
2023/08/11 02:06:15;;;;;;;;;;;;;;;;;;2194516;67;1800;-21
2023/08/11 02:08:46;;;;;;;;;;;;;;;;;;2195961;67;2141;-21
2023/08/11 02:11:16;;;;;;;;;;;;;;;;;;2197772;67;1741;-21
2023/08/11 02:13:47;;;;;;;;;;;;;;;;;;2198813;67;1548;-21
2023/08/11 02:16:18;;;;;;;;;;;;;;;;;;2196856;67;1882;-21
2023/08/11 02:18:48;;;;;;;;;;;;;;;;;;2196076;67;1996;-21
2023/08/11 02:21:19;;;;;;;;;;;;;;;;;;2195554;67;1928;-21
2023/08/11 02:23:49;;;;;;;;;;;;;;;;;;2196941;67;2252;-21
2023/08/11 02:26:19;;;;;;;;;;;;;;;;;;2196418;59;1469;-21
2023/08/11 02:28:49;;;;;;;;;;;;;;;;;;2196387;59;1701;-21
2023/08/11 02:31:20;;;;;;;;;;;;;;;;;;2196976;59;1948;-21
2023/08/11 02:33:50;;;;;;;;;;;;;;;;;;2197924;59;1789;-21
2023/08/11 02:36:20;;;;;;;;;;;;;;;;;;2196256;67;2357;-21
2023/08/11 02:38:51;;;;;;;;;;;;;;;;;;2196576;66;1992;-21
2023/08/11 02:41:21;;;;;;;;;;;;;;;;;;2195746;67;2186;-21
2023/08/11 02:43:51;;;;;;;;;;;;;;;;;;2195175;63;2180;-21
2023/08/11 02:46:22;;;;;;;;;;;;;;;;;;2195130;59;2332;-21
2023/08/11 02:48:52;;;;;;;;;;;;;;;;;;2196028;59;1963;-22
2023/08/11 02:51:23;;;;;;;;;;;;;;;;;;2195768;59;1798;-22
2023/08/11 02:53:53;;;;;;;;;;;;;;;;;;2196329;67;3285;-22
2023/08/11 02:56:24;;;;;;;;;;;;;;;;;;2196041;59;3317;-22
2023/08/11 02:58:58;;;;;;;;;;;;;;;;;;2195139;66;1969;-22
2023/08/11 03:01:28;;;;;;;;;;;;;;;;;;2195784;59;1944;-22
2023/08/11 03:04:01;;;;;;;;;;;;;;;;;;2196438;58;1619;-22
2023/08/11 03:06:32;;;;;;;;;;;;;;;;;;2195561;67;1759;-22
2023/08/11 03:09:02;;;;;;;;;;;;;;;;;;2195827;67;2440;-22
2023/08/11 03:11:32;;;;;;;;;;;;;;;;;;2196693;59;3390;-22
2023/08/11 03:14:03;;;;;;;;;;;;;;;;;;2195941;67;1784;-22
2023/08/11 03:16:33;;;;;;;;;;;;;;;;;;2196584;60;2106;-22
2023/08/11 03:19:03;;;;;;;;;;;;;;;;;;2195293;60;2813;-22
2023/08/11 03:21:33;;;;;;;;;;;;;;;;;;2195947;66;1933;-22
2023/08/11 03:24:04;;;;;;;;;;;;;;;;;;2195226;67;2412;-22
2023/08/11 03:26:36;;;;;;;;;;;;;;;;;;2194954;59;2451;-22
2023/08/11 03:29:06;;;;;;;;;;;;;;;;;;2195818;59;1919;-22
2023/08/11 03:31:36;;;;;;;;;;;;;;;;;;2195958;59;1797;-22
2023/08/11 03:34:06;;;;;;;;;;;;;;;;;;2195601;59;2388;-22
2023/08/11 03:36:36;;;;;;;;;;;;;;;;;;2195821;67;1757;-22
2023/08/11 03:39:07;;;;;;;;;;;;;;;;;;2194612;67;1595;-22
2023/08/11 03:41:37;;;;;;;;;;;;;;;;;;2195629;67;2246;-22
2023/08/11 03:44:07;;;;;;;;;;;;;;;;;;2195522;66;2843;-22
2023/08/11 03:46:37;;;;;;;;;;;;;;;;;;2195132;59;2359;-22
2023/08/11 03:49:11;;;;;;;;;;;;;;;;;;2194993;59;1914;-22
2023/08/11 03:51:41;;;;;;;;;;;;;;;;;;2197827;59;1737;-22
2023/08/11 03:54:12;;;;;;;;;;;;;;;;;;2198034;58;1302;-22
2023/08/11 03:56:43;;;;;;;;;;;;;;;;;;2196517;59;1152;-22
2023/08/11 03:59:13;;;;;;;;;;;;;;;;;;2195344;67;1324;-22
2023/08/11 04:01:44;;;;;;;;;;;;;;;;;;2196860;59;2194;-22
2023/08/11 04:04:14;;;;;;;;;;;;;;;;;;2197083;58;1485;-22
2023/08/11 04:06:44;;;;;;;;;;;;;;;;;;2195775;67;1698;-22
2023/08/11 04:09:18;;;;;;;;;;;;;;;;;;2196895;67;1721;-22
2023/08/11 04:11:48;;;;;;;;;;;;;;;;;;2196586;59;1457;-22
2023/08/11 04:14:18;;;;;;;;;;;;;;;;;;2196146;67;2180;-22
2023/08/11 04:16:51;;;;;;;;;;;;;;;;;;2196411;67;1272;-22
2023/08/11 04:19:22;;;;;;;;;;;;;;;;;;2196622;67;1979;-22
2023/08/11 04:21:52;;;;;;;;;;;;;;;;;;2196353;67;1936;-22
2023/08/11 04:24:22;;;;;;;;;;;;;;;;;;2195921;67;1503;-22
2023/08/11 04:26:52;;;;;;;;;;;;;;;;;;2196334;59;1280;-22
2023/08/11 04:29:22;;;;;;;;;;;;;;;;;;2195425;66;1741;-22
2023/08/11 04:31:53;;;;;;;;;;;;;;;;;;2196204;59;1927;-22
2023/08/11 04:34:31;;;;;;;;;;;;;;;;;;2195600;59;1310;-22
2023/08/11 04:37:01;;;;;;;;;;;;;;;;;;2195888;67;1708;-22
2023/08/11 04:39:31;;;;;;;;;;;;;;;;;;2195835;67;1686;-22
2023/08/11 04:42:02;;;;;;;;;;;;;;;;;;2195964;67;1926;-22
2023/08/11 04:44:33;;;;;;;;;;;;;;;;;;2195567;59;2630;-22
2023/08/11 04:47:05;;;;;;;;;;;;;;;;;;2195788;63;2764;-22
2023/08/11 04:49:36;;;;;;;;;;;;;;;;;;2195409;59;3442;-22
2023/08/11 04:52:06;;;;;;;;;;;;;;;;;;2196499;58;1785;-22
2023/08/11 04:54:36;;;;;;;;;;;;;;;;;;2196756;59;1178;-22
2023/08/11 04:57:06;;;;;;;;;;;;;;;;;;2195571;59;1675;-22
2023/08/11 04:59:37;;;;;;;;;;;;;;;;;;2196877;67;1681;-22
2023/08/11 05:02:07;;;;;;;;;;;;;;;;;;2196264;59;2065;-22
2023/08/11 05:04:38;;;;;;;;;;;;;;;;;;2196717;66;1421;-22
2023/08/11 05:07:08;;;;;;;;;;;;;;;;;;2195450;67;1325;-22
2023/08/11 05:09:39;;;;;;;;;;;;;;;;;;2196323;67;1207;-22
2023/08/11 05:12:12;;;;;;;;;;;;;;;;;;2195683;59;1668;-22
2023/08/11 05:14:43;;;;;;;;;;;;;;;;;;2195665;67;1399;-22
2023/08/11 05:17:13;;;;;;;;;;;;;;;;;;2196012;59;1730;-22
2023/08/11 05:19:44;;;;;;;;;;;;;;;;;;2197554;67;1650;-22
2023/08/11 05:22:14;;;;;;;;;;;;;;;;;;2195003;67;1969;-22
2023/08/11 05:24:44;;;;;;;;;;;;;;;;;;2196506;67;1169;-22
2023/08/11 05:27:15;;;;;;;;;;;;;;;;;;2195782;59;1936;-21
2023/08/11 05:29:47;;;;;;;;;;;;;;;;;;2195621;67;1561;-21
2023/08/11 05:32:17;;;;;;;;;;;;;;;;;;2195117;59;1313;-21
2023/08/11 05:34:47;;;;;;;;;;;;;;;;;;2196581;67;1268;-21
2023/08/11 05:37:22;;;;;;;;;;;;;;;;;;2196708;67;1230;-21
2023/08/11 05:39:53;;;;;;;;;;;;;;;;;;2195867;67;1387;-21
2023/08/11 05:42:23;;;;;;;;;;;;;;;;;;2195303;67;1941;-21
2023/08/11 05:44:54;;;;;;;;;;;;;;;;;;2196122;59;1667;-21
2023/08/11 05:47:24;;;;;;;;;;;;;;;;;;2195128;59;2749;-21
2023/08/11 05:49:54;;;;;;;;;;;;;;;;;;2195786;59;1963;-21
2023/08/11 05:52:24;;;;;;;;;;;;;;;;;;2197176;58;2917;-21
2023/08/11 05:54:55;;;;;;;;;;;;;;;;;;2196076;59;3369;-21
2023/08/11 05:57:25;;;;;;;;;;;;;;;;;;2197914;59;2567;-21
2023/08/11 05:59:55;;;;;;;;;;;;;;;;;;2195869;59;1949;-21
2023/08/11 06:02:26;;;;;;;;;;;;;;;;;;2197306;67;1988;-21
2023/08/11 06:04:59;;;;;;;;;;;;;;;;;;2196952;58;1324;-21
2023/08/11 06:07:29;;;;;;;;;;;;;;;;;;2195100;67;1246;-21
2023/08/11 06:09:59;;;;;;;;;;;;;;;;;;2196051;67;1625;-21
2023/08/11 06:12:30;;;;;;;;;;;;;;;;;;2196162;59;1493;-21
2023/08/11 06:15:02;;;;;;;;;;;;;;;;;;2194678;67;1374;-21
2023/08/11 06:17:32;;;;;;;;;;;;;;;;;;2197459;67;2066;-21
2023/08/11 06:20:04;;;;;;;;;;;;;;;;;;2197517;67;1743;-21
2023/08/11 06:22:34;;;;;;;;;;;;;;;;;;2194896;67;1946;-21
2023/08/11 06:25:06;;;;;;;;;;;;;;;;;;2196775;66;1664;-21
2023/08/11 06:27:36;;;;;;;;;;;;;;;;;;2196072;59;1340;-21
2023/08/11 06:30:07;;;;;;;;;;;;;;;;;;2196153;67;2119;-22
2023/08/11 06:32:37;;;;;;;;;;;;;;;;;;2197126;59;1615;-21
2023/08/11 06:35:08;;;;;;;;;;;;;;;;;;2195574;67;1135;-22
2023/08/11 06:37:38;;;;;;;;;;;;;;;;;;2195457;67;1646;-21
2023/08/11 06:40:09;;;;;;;;;;;;;;;;;;2195986;67;1165;-21
2023/08/11 06:42:39;;;;;;;;;;;;;;;;;;2195534;67;1936;-22
2023/08/11 06:45:10;;;;;;;;;;;;;;;;;;2195502;59;1619;-21
2023/08/11 06:47:40;;;;;;;;;;;;;;;;;;2196724;59;2589;-22
2023/08/11 06:50:10;;;;;;;;;;;;;;;;;;2195904;59;2205;-22
2023/08/11 06:52:40;;;;;;;;;;;;;;;;;;2197446;58;1777;-21
2023/08/11 06:55:11;;;;;;;;;;;;;;;;;;2195108;59;1808;-21
2023/08/11 06:57:41;;;;;;;;;;;;;;;;;;2196027;59;1569;-22
2023/08/11 07:00:11;;;;;;;;;;;;;;;;;;2196654;59;1693;-22
2023/08/11 07:02:42;;;;;;;;;;;;;;;;;;2195704;67;2005;-22
2023/08/11 07:05:12;;;;;;;;;;;;;;;;;;2198297;58;1386;-22
2023/08/11 07:07:42;;;;;;;;;;;;;;;;;;2197344;67;1424;-22
2023/08/11 07:10:12;;;;;;;;;;;;;;;;;;2198507;67;1503;-22
2023/08/11 07:12:43;;;;;;;;;;;;;;;;;;2196237;59;1704;-22
2023/08/11 07:15:13;;;;;;;;;;;;;;;;;;2197785;67;1351;-22
2023/08/11 07:17:44;;;;;;;;;;;;;;;;;;2195984;67;1224;-22
2023/08/11 07:20:14;;;;;;;;;;;;;;;;;;2195846;67;1166;-22
2023/08/11 07:22:44;;;;;;;;;;;;;;;;;;2195793;67;1999;-23
2023/08/11 07:25:14;;;;;;;;;;;;;;;;;;2196105;67;1516;-22
2023/08/11 07:27:44;;;;;;;;;;;;;;;;;;2195361;59;1298;-22
2023/08/11 07:30:15;;;;;;;;;;;;;;;;;;2195586;66;1988;-22
2023/08/11 07:32:45;;;;;;;;;;;;;;;;;;2196758;59;1623;-22
2023/08/11 07:35:15;;;;;;;;;;;;;;;;;;2195907;66;1279;-22
2023/08/11 07:37:45;;;;;;;;;;;;;;;;;;2194829;59;1834;-22
2023/08/11 07:40:16;;;;;;;;;;;;;;;;;;2197305;67;1633;-22
2023/08/11 07:42:47;;;;;;;;;;;;;;;;;;2196039;67;1961;-22
2023/08/11 07:45:17;;;;;;;;;;;;;;;;;;2195561;59;2033;-23
2023/08/11 07:47:47;;;;;;;;;;;;;;;;;;2195147;59;2349;-22
2023/08/11 07:50:18;;;;;;;;;;;;;;;;;;2196236;59;3012;-22
2023/08/11 07:52:48;;;;;;;;;;;;;;;;;;2196399;58;1738;-23
2023/08/11 07:55:21;;;;;;;;;;;;;;;;;;2195618;59;1917;-21
2023/08/11 07:57:54;;;;;;;;;;;;;;;;;;2195231;67;1750;-21
2023/08/11 08:00:25;;;;;;;;;;;;;;;;;;2196239;59;1809;-21
2023/08/11 08:02:55;;;;;;;;;;;;;;;;;;2195686;67;2626;-21
2023/08/11 08:05:26;;;;;;;;;;;;;;;;;;2195866;59;1751;-21
2023/08/11 08:07:56;;;;;;;;;;;;;;;;;;2194573;67;2244;-21
2023/08/11 08:10:26;;;;;;;;;;;;;;;;;;2195966;67;1764;-21
2023/08/11 08:12:56;;;;;;;;;;;;;;;;;;2195682;59;1572;-21
2023/08/11 08:15:28;;;;;;;;;;;;;;;;;;2195360;67;1714;-21
2023/08/11 08:17:58;;;;;;;;;;;;;;;;;;2198757;66;1668;-21
2023/08/11 08:20:28;;;;;;;;;;;;;;;;;;2196136;67;1148;-21
2023/08/11 08:22:59;;;;;;;;;;;;;;;;;;2196579;67;2011;-21
2023/08/11 08:25:29;;;;;;;;;;;;;;;;;;2196864;67;1230;-21
2023/08/11 08:27:59;;;;;;;;;;;;;;;;;;2195611;59;1818;-22
2023/08/11 08:30:29;;;;;;;;;;;;;;;;;;2198096;59;2037;-22
2023/08/11 08:33:00;;;;;;;;;;;;;;;;;;2195640;59;1219;-22
2023/08/11 08:35:30;;;;;;;;;;;;;;;;;;2195951;67;1311;-22
2023/08/11 08:38:00;;;;;;;;;;;;;;;;;;2194725;66;1892;-22
2023/08/11 08:40:31;;;;;;;;;;;;;;;;;;2196175;67;1930;-22
2023/08/11 08:43:03;;;;;;;;;;;;;;;;;;2195656;67;1997;-21
2023/08/11 08:45:35;;;;;;;;;;;;;;;;;;2196654;59;1988;-22
2023/08/11 08:48:13;;;;;;;;;;;;;;;;;;2202259;53;1860;-19
2023/08/11 08:50:43;;;;;;;;;;;;;;;;;;2198421;59;2516;-19
2023/08/11 08:53:14;;;;;;;;;;;;;;;;;;2200397;59;2062;-19
2023/08/11 08:55:45;;;;;;;;;;;;;;;;;;2201120;59;1779;-19
2023/08/11 08:58:16;;;;;;;;;;;;;;;;;;2200384;66;1786;-19
2023/08/11 09:00:46;;;;;;;;;;;;;;;;;;2197654;59;2798;-19
2023/08/11 09:03:16;;;;;;;;;;;;;;;;;;2197173;66;1937;-19
2023/08/11 09:05:46;;;;;;;;;;;;;;;;;;2196996;59;2014;-19
2023/08/11 09:08:17;;;;;;;;;;;;;;;;;;2197971;66;1465;-19
2023/08/11 09:10:47;;;;;;;;;;;;;;;;;;2197004;66;1823;-19
2023/08/11 09:13:17;;;;;;;;;;;;;;;;;;2195872;59;1632;-21
2023/08/11 09:15:48;;;;;;;;;;;;;;;;;;2197434;66;1844;-21
2023/08/11 09:18:18;;;;;;;;;;;;;;;;;;2196529;66;1474;-21
2023/08/11 09:20:49;;;;;;;;;;;;;;;;;;2195939;66;1681;-21
2023/08/11 09:23:19;;;;;;;;;;;;;;;;;;2197548;66;1988;-21
2023/08/11 09:25:52;;;;;;;;;;;;;;;;;;2197822;59;1304;-21
2023/08/11 09:28:25;;;;;;;;;;;;;;;;;;2196747;59;1254;-21
2023/08/11 09:30:55;;;;;;;;;;;;;;;;;;2196855;59;1332;-21
2023/08/11 09:33:25;;;;;;;;;;;;;;;;;;2197104;59;1140;-21
2023/08/11 09:35:56;;;;;;;;;;;;;;;;;;2197677;66;1356;-21
2023/08/11 09:38:29;;;;;;;;;;;;;;;;;;2197526;66;1203;-20
2023/08/11 09:41:01;;;;;;;;;;;;;;;;;;2196370;66;1209;-19
2023/08/11 09:43:34;;;;;;;;;;;;;;;;;;2196198;66;2011;-19
2023/08/11 09:46:05;;;;;;;;;;;;;;;;;;2196423;59;1961;-19
2023/08/11 09:48:35;;;;;;;;;;;;;;;;;;2196948;59;1281;-19
2023/08/11 09:51:10;;;;;;;;;;;;;;;;;;2194830;59;2294;-19
2023/08/11 09:53:42;;;;;;;;;;;;;;;;;;2197720;59;2743;-20
2023/08/11 09:56:12;;;;;;;;;;;;;;;;;;2197612;58;1739;-19
2023/08/11 09:58:45;;;;;;;;;;;;;;;;;;2197669;66;1946;-19
2023/08/11 10:01:16;;;;;;;;;;;;;;;;;;2195391;59;1965;-19
2023/08/11 10:03:47;;;;;;;;;;;;;;;;;;2197194;59;1942;-19
2023/08/11 10:06:23;;;;;;;;;;;;;;;;;;2197061;66;2012;-19
2023/08/11 10:08:53;;;;;;;;;;;;;;;;;;2196090;66;2119;-19
2023/08/11 10:11:24;;;;;;;;;;;;;;;;;;2197007;66;2055;-19
2023/08/11 10:13:55;;;;;;;;;;;;;;;;;;2197227;63;1966;-19
2023/08/11 10:16:27;;;;;;;;;;;;;;;;;;2195359;66;1914;-19
2023/08/11 10:18:58;;;;;;;;;;;;;;;;;;2196449;66;1549;-19
2023/08/11 10:21:28;;;;;;;;;;;;;;;;;;2194300;67;2003;-19
2023/08/11 10:23:59;;;;;;;;;;;;;;;;;;2196060;66;1202;-19
2023/08/11 10:26:31;;;;;;;;;;;;;;;;;;2196949;59;1582;-19
2023/08/11 10:29:01;;;;;;;;;;;;;;;;;;2195366;59;1594;-19
2023/08/11 10:31:32;;;;;;;;;;;;;;;;;;2196435;66;1371;-19
2023/08/11 10:34:06;;;;;;;;;;;;;;;;;;2196693;59;2197;-19
2023/08/11 10:36:37;;;;;;;;;;;;;;;;;;2196886;66;1445;-19
2023/08/11 10:39:07;;;;;;;;;;;;;;;;;;2197467;66;1304;-21
2023/08/11 10:41:43;;;;;;;;;;;;;;;;;;2197746;66;1935;-21
2023/08/11 10:44:19;;;;;;;;;;;;;;;;;;2197308;66;1202;-21
2023/08/11 10:46:51;;;;;;;;;;;;;;;;;;2196561;66;1360;-22
2023/08/11 10:49:32;;;;;;;;;;;;;;;;;;2195624;59;1431;-21
2023/08/11 10:52:03;;;;;;;;;;;;;;;;;;2194882;59;2640;-21
2023/08/11 10:54:34;;;;;;;;;;;;;;;;;;2195816;59;1807;-21
2023/08/11 10:57:04;;;;;;;;;;;;;;;;;;2196019;59;1910;-21
2023/08/11 10:59:34;;;;;;;;;;;;;;;;;;2196051;66;1903;-22
2023/08/11 11:02:08;;;;;;;;;;;;;;;;;;2195561;59;2364;-21
2023/08/11 11:04:40;;;;;;;;;;;;;;;;;;2196685;59;2045;-21
2023/08/11 11:07:12;;;;;;;;;;;;;;;;;;2194613;66;2482;-22
2023/08/11 11:09:42;;;;;;;;;;;;;;;;;;2192649;67;1683;-22
2023/08/11 11:12:14;;;;;;;;;;;;;;;;;;2195120;59;3420;-22
2023/08/11 11:14:44;;;;;;;;;;;;;;;;;;2196754;66;1984;-22
2023/08/11 11:17:16;;;;;;;;;;;;;;;;;;2195625;66;2416;-22
2023/08/11 11:19:46;;;;;;;;;;;;;;;;;;2195947;66;1783;-22
2023/08/11 11:22:17;;;;;;;;;;;;;;;;;;2195996;66;1972;-20
2023/08/11 11:24:48;;;;;;;;;;;;;;;;;;2196491;67;2046;-23
2023/08/11 11:27:21;;;;;;;;;;;;;;;;;;2196415;59;1567;-23
2023/08/11 11:29:58;;;;;;;;;;;;;;;;;;2196142;66;1288;-23
2023/08/11 11:32:28;;;;;;;;;;;;;;;;;;2196207;59;1392;-23
2023/08/11 11:34:58;;;;;;;;;;;;;;;;;;2197577;66;1539;-23
2023/08/11 11:37:28;;;;;;;;;;;;;;;;;;2196206;66;1318;-23
2023/08/11 11:40:01;;;;;;;;;;;;;;;;;;2195561;67;2014;-23
2023/08/11 11:42:33;;;;;;;;;;;;;;;;;;2197054;66;1928;-23
2023/08/11 11:45:04;;;;;;;;;;;;;;;;;;2195498;59;1509;-21
2023/08/11 11:47:34;;;;;;;;;;;;;;;;;;2197757;58;2023;-21
2023/08/11 11:50:06;;;;;;;;;;;;;;;;;;2196718;59;1711;-21
2023/08/11 11:52:37;;;;;;;;;;;;;;;;;;2196436;59;2701;-21
2023/08/11 11:55:07;;;;;;;;;;;;;;;;;;2194866;59;3479;-23
2023/08/11 11:57:38;;;;;;;;;;;;;;;;;;2196241;59;1871;-23
2023/08/11 12:00:16;;;;;;;;;;;;;;;;;;2196451;59;1932;-21
2023/08/11 12:02:46;;;;;;;;;;;;;;;;;;2196767;66;1938;-23
2023/08/11 12:05:16;;;;;;;;;;;;;;;;;;2195492;67;1469;-23
2023/08/11 12:07:47;;;;;;;;;;;;;;;;;;2196908;66;1385;-23
2023/08/11 12:10:21;;;;;;;;;;;;;;;;;;2195832;66;1428;-23
2023/08/11 12:12:57;;;;;;;;;;;;;;;;;;2195697;59;1300;-23
2023/08/11 12:15:28;;;;;;;;;;;;;;;;;;2195354;67;1264;-23
2023/08/11 12:17:58;;;;;;;;;;;;;;;;;;2195384;66;1306;-23
2023/08/11 12:20:28;;;;;;;;;;;;;;;;;;2196302;66;1334;-23
2023/08/11 12:22:59;;;;;;;;;;;;;;;;;;2195584;66;1939;-21
2023/08/11 12:25:30;;;;;;;;;;;;;;;;;;2197610;66;1714;-21
2023/08/11 12:28:02;;;;;;;;;;;;;;;;;;2196483;59;1241;-21
2023/08/11 12:30:32;;;;;;;;;;;;;;;;;;2196823;59;1786;-21
2023/08/11 12:33:03;;;;;;;;;;;;;;;;;;2197094;59;1661;-21
2023/08/11 12:35:34;;;;;;;;;;;;;;;;;;2197442;66;1187;-21
2023/08/11 12:38:05;;;;;;;;;;;;;;;;;;2197136;66;1668;-21
2023/08/11 12:40:35;;;;;;;;;;;;;;;;;;2196973;66;1207;-21
2023/08/11 12:43:06;;;;;;;;;;;;;;;;;;2196967;59;1938;-21
2023/08/11 12:45:36;;;;;;;;;;;;;;;;;;2196859;59;1684;-21
2023/08/11 12:48:07;;;;;;;;;;;;;;;;;;2196639;59;1914;-21
2023/08/11 12:50:38;;;;;;;;;;;;;;;;;;2195856;59;1605;-21
2023/08/11 12:53:09;;;;;;;;;;;;;;;;;;2196135;59;2980;-21
2023/08/11 12:55:39;;;;;;;;;;;;;;;;;;2196580;59;3151;-21
2023/08/11 12:58:09;;;;;;;;;;;;;;;;;;2196036;59;1993;-21
2023/08/11 13:00:39;;;;;;;;;;;;;;;;;;2197489;59;1881;-21
2023/08/11 13:03:10;;;;;;;;;;;;;;;;;;2195872;66;2885;-21
2023/08/11 13:05:40;;;;;;;;;;;;;;;;;;2199474;66;1591;-21
2023/08/11 13:08:11;;;;;;;;;;;;;;;;;;2198095;66;1713;-21
2023/08/11 13:10:41;;;;;;;;;;;;;;;;;;2200399;66;1676;-21
2023/08/11 13:13:11;;;;;;;;;;;;;;;;;;2198356;59;1596;-21
2023/08/11 13:15:41;;;;;;;;;;;;;;;;;;2199399;66;1945;-21
2023/08/11 13:18:11;;;;;;;;;;;;;;;;;;2197761;59;1603;-21
2023/08/11 13:20:42;;;;;;;;;;;;;;;;;;2197694;66;2232;-21
2023/08/11 13:23:12;;;;;;;;;;;;;;;;;;2196664;66;1944;-21
2023/08/11 13:25:42;;;;;;;;;;;;;;;;;;2198986;66;1806;-21
2023/08/11 13:28:15;;;;;;;;;;;;;;;;;;2199299;66;1333;-21
2023/08/11 13:30:47;;;;;;;;;;;;;;;;;;2201793;66;2005;-19
2023/08/11 13:33:17;;;;;;;;;;;;;;;;;;2202476;59;1294;-21
2023/08/11 13:35:48;;;;;;;;;;;;;;;;;;2199111;59;1660;-19
2023/08/11 13:38:18;;;;;;;;;;;;;;;;;;2198692;66;1658;-19
2023/08/11 13:40:48;;;;;;;;;;;;;;;;;;2198541;66;1823;-19
2023/08/11 13:43:21;;;;;;;;;;;;;;;;;;2196798;66;1947;-19
2023/08/11 13:45:53;;;;;;;;;;;;;;;;;;2196752;59;1709;-19
2023/08/11 13:48:23;;;;;;;;;;;;;;;;;;2196987;59;1780;-19
2023/08/11 13:50:53;;;;;;;;;;;;;;;;;;2197153;59;1585;-19
2023/08/11 13:53:23;;;;;;;;;;;;;;;;;;2197308;59;2884;-19
2023/08/11 13:55:53;;;;;;;;;;;;;;;;;;2194789;59;2990;-19
2023/08/11 13:58:24;;;;;;;;;;;;;;;;;;2196891;66;1870;-19
2023/08/11 14:00:54;;;;;;;;;;;;;;;;;;2196800;59;1848;-19
2023/08/11 14:03:24;;;;;;;;;;;;;;;;;;2195988;66;2008;-19
2023/08/11 14:05:54;;;;;;;;;;;;;;;;;;2198515;59;2446;-19
2023/08/11 14:08:25;;;;;;;;;;;;;;;;;;2196994;59;2679;-19
2023/08/11 14:10:55;;;;;;;;;;;;;;;;;;2197192;59;1603;-19
2023/08/11 14:13:27;;;;;;;;;;;;;;;;;;2197154;66;2958;-19
2023/08/11 14:15:58;;;;;;;;;;;;;;;;;;2196312;59;1944;-19
2023/08/11 14:18:28;;;;;;;;;;;;;;;;;;2197022;66;2562;-19
2023/08/11 14:20:58;;;;;;;;;;;;;;;;;;2198135;66;1764;-19
2023/08/11 14:23:29;;;;;;;;;;;;;;;;;;2196463;59;3019;-19
2023/08/11 14:25:59;;;;;;;;;;;;;;;;;;2197562;59;1488;-19
2023/08/11 14:28:29;;;;;;;;;;;;;;;;;;2197889;66;1802;-19
2023/08/11 14:30:59;;;;;;;;;;;;;;;;;;2196764;59;1707;-19
2023/08/11 14:33:30;;;;;;;;;;;;;;;;;;2197495;59;1867;-19
2023/08/11 14:36:00;;;;;;;;;;;;;;;;;;2197128;66;1920;-19
2023/08/11 14:38:30;;;;;;;;;;;;;;;;;;2196558;66;3563;-19
2023/08/11 14:41:01;;;;;;;;;;;;;;;;;;2196399;59;1956;-19
2023/08/11 14:43:31;;;;;;;;;;;;;;;;;;2197281;66;2348;-21
2023/08/11 14:46:02;;;;;;;;;;;;;;;;;;2196664;59;1747;-21
2023/08/11 14:51:06;;;;;;;;;;;;;;;;;;2193988;59;1681;-18
2023/08/11 14:53:37;;;;;;;;;;;;;;;;;;2196599;59;2297;-18
2023/08/11 14:56:07;;;;;;;;;;;;;;;;;;2194633;59;2619;-18
2023/08/11 14:58:38;;;;;;;;;;;;;;;;;;2196015;67;2445;-18
2023/08/11 15:01:08;;;;;;;;;;;;;;;;;;2193292;59;1892;-18
2023/08/11 15:03:38;;;;;;;;;;;;;;;;;;2194063;59;1926;-18
2023/08/11 15:06:08;;;;;;;;;;;;;;;;;;2193287;67;1220;-18
2023/08/11 15:08:39;;;;;;;;;;;;;;;;;;2193656;67;1222;-18
2023/08/11 15:11:09;;;;;;;;;;;;;;;;;;2193320;67;1387;-18
2023/08/11 15:13:39;;;;;;;;;;;;;;;;;;2194679;59;1687;-18
2023/08/11 15:16:09;;;;;;;;;;;;;;;;;;2193644;67;1677;-19
2023/08/11 15:18:41;;;;;;;;;;;;;;;;;;2193974;67;1599;-18
2023/08/11 15:21:12;;;;;;;;;;;;;;;;;;2193366;59;1804;-18
2023/08/11 15:23:42;;;;;;;;;;;;;;;;;;2193657;67;1940;-18
2023/08/11 15:26:13;;;;;;;;;;;;;;;;;;2192897;59;1704;-18
2023/08/11 15:28:43;;;;;;;;;;;;;;;;;;2193741;67;1252;-18
2023/08/11 15:31:14;;;;;;;;;;;;;;;;;;2193845;67;1677;-18
2023/08/11 15:33:44;;;;;;;;;;;;;;;;;;2193963;59;1928;-18
2023/08/11 15:36:15;;;;;;;;;;;;;;;;;;2192998;67;1717;-18
2023/08/11 15:38:45;;;;;;;;;;;;;;;;;;2194463;67;1241;-18
2023/08/11 15:41:15;;;;;;;;;;;;;;;;;;2194131;67;1620;-18
2023/08/11 15:43:45;;;;;;;;;;;;;;;;;;2193931;67;1935;-18
2023/08/11 15:46:15;;;;;;;;;;;;;;;;;;2193762;59;1458;-18
2023/08/11 15:48:46;;;;;;;;;;;;;;;;;;2193850;59;1236;-18
2023/08/11 15:51:18;;;;;;;;;;;;;;;;;;2194232;59;1377;-18
2023/08/11 15:53:48;;;;;;;;;;;;;;;;;;2195091;59;1390;-18
2023/08/11 15:56:19;;;;;;;;;;;;;;;;;;2193057;67;2662;-18
2023/08/11 15:58:49;;;;;;;;;;;;;;;;;;2195046;67;2510;-19
2023/08/11 16:01:22;;;;;;;;;;;;;;;;;;2193809;59;1773;-18
2023/08/11 16:03:52;;;;;;;;;;;;;;;;;;2194036;59;2452;-19
2023/08/11 16:06:22;;;;;;;;;;;;;;;;;;2193794;67;1760;-18
2023/08/11 16:08:53;;;;;;;;;;;;;;;;;;2198659;67;2641;-18
2023/08/11 16:11:23;;;;;;;;;;;;;;;;;;2194341;67;2086;-18
2023/08/11 16:13:54;;;;;;;;;;;;;;;;;;2194418;59;2452;-18
2023/08/11 16:16:24;;;;;;;;;;;;;;;;;;2193943;67;2381;-18
2023/08/11 16:18:54;;;;;;;;;;;;;;;;;;2193890;67;1734;-19
2023/08/11 16:21:24;;;;;;;;;;;;;;;;;;2194232;67;2001;-18
2023/08/11 16:23:57;;;;;;;;;;;;;;;;;;2193758;67;2384;-18
2023/08/11 16:26:27;;;;;;;;;;;;;;;;;;2193326;67;2297;-21
2023/08/11 16:28:58;;;;;;;;;;;;;;;;;;2193941;67;1739;-18
2023/08/11 16:31:28;;;;;;;;;;;;;;;;;;2193913;59;2274;-18
2023/08/11 16:33:58;;;;;;;;;;;;;;;;;;2194077;67;1967;-18
2023/08/11 16:36:28;;;;;;;;;;;;;;;;;;2190247;67;2769;-18
2023/08/11 16:38:58;;;;;;;;;;;;;;;;;;2194083;67;2537;-18
2023/08/11 16:41:29;;;;;;;;;;;;;;;;;;2194178;67;3186;-18
2023/08/11 16:43:59;;;;;;;;;;;;;;;;;;2193605;67;3534;-18
2023/08/11 16:46:30;;;;;;;;;;;;;;;;;;2193384;59;1721;-21
2023/08/11 16:49:00;;;;;;;;;;;;;;;;;;2193874;59;1846;-19
2023/08/11 16:51:30;;;;;;;;;;;;;;;;;;2194716;59;2368;-20
2023/08/11 16:54:00;;;;;;;;;;;;;;;;;;2195176;59;2411;-19
2023/08/11 16:56:31;;;;;;;;;;;;;;;;;;2193398;59;2639;-18
2023/08/11 16:59:01;;;;;;;;;;;;;;;;;;2193136;67;2521;-18
2023/08/11 17:01:31;;;;;;;;;;;;;;;;;;2193885;59;2047;-19
2023/08/11 17:04:01;;;;;;;;;;;;;;;;;;2194382;59;2263;-18
2023/08/11 17:06:32;;;;;;;;;;;;;;;;;;2193880;67;2207;-18
2023/08/11 17:09:04;;;;;;;;;;;;;;;;;;2193912;67;3243;-20
2023/08/11 17:11:34;;;;;;;;;;;;;;;;;;2194238;59;2324;-18
2023/08/11 17:14:04;;;;;;;;;;;;;;;;;;2194459;67;1480;-18
2023/08/11 17:16:34;;;;;;;;;;;;;;;;;;2195193;67;2016;-18
2023/08/11 17:19:04;;;;;;;;;;;;;;;;;;2194820;67;1792;-18
2023/08/11 17:21:35;;;;;;;;;;;;;;;;;;2193986;67;1854;-18
2023/08/11 17:24:05;;;;;;;;;;;;;;;;;;2193368;67;1940;-20
2023/08/11 17:26:36;;;;;;;;;;;;;;;;;;2194709;59;1977;-20
2023/08/11 17:29:06;;;;;;;;;;;;;;;;;;2194479;67;1916;-20